Time;durP1;ratioP1;P1;durP2;ratioP2;P2;SDS_P1;SDS_P2;PMS_P1;PMS_P2;Temp;Humidity;BMP_temperature;BMP_pressure;BME280_temperature;BME280_humidity;BME280_pressure;Samples;Min_cycle;Max_cycle;Signal;HPM_P1;HPM_P2
2022/03/30 00:02:14;;;;;;;7.95;4.57;;;20.20;44.40;;;;;;5029356;28;20190;-72
2022/03/30 00:04:40;;;;;;;8.98;4.60;;;20.20;43.70;;;;;;5013157;28;20184;-72
2022/03/30 00:07:06;;;;;;;6.65;4.05;;;20.20;43.60;;;;;;5029664;28;20184;-72
2022/03/30 00:09:32;;;;;;;6.75;4.47;;;20.20;43.70;;;;;;5012943;28;20183;-72
2022/03/30 00:11:59;;;;;;;6.85;4.22;;;20.20;43.70;;;;;;5029226;28;20192;-72
2022/03/30 00:14:25;;;;;;;8.73;4.25;;;20.20;43.70;;;;;;5029278;28;20192;-72
2022/03/30 00:16:51;;;;;;;10.90;4.25;;;20.20;43.70;;;;;;5029101;28;20183;-72
2022/03/30 00:19:18;;;;;;;9.10;4.72;;;20.20;43.70;;;;;;5013900;28;20180;-72
2022/03/30 00:21:44;;;;;;;7.07;4.25;;;20.20;43.70;;;;;;5029001;28;20202;-72
2022/03/30 00:24:10;;;;;;;6.97;4.50;;;20.20;43.70;;;;;;5012658;28;20188;-72
2022/03/30 00:26:36;;;;;;;8.50;4.38;;;20.20;43.70;;;;;;5012699;28;20242;-72
2022/03/30 00:29:04;;;;;;;6.22;4.53;;;20.20;43.70;;;;;;5029007;28;20215;-72
2022/03/30 00:31:33;;;;;;;8.75;4.50;;;20.20;43.70;;;;;;5012329;28;20219;-72
2022/03/30 00:33:59;;;;;;;8.65;4.30;;;20.20;43.70;;;;;;5028978;28;20188;-72
2022/03/30 00:36:25;;;;;;;13.52;4.72;;;20.20;43.70;;;;;;5028823;28;20188;-72
2022/03/30 00:38:51;;;;;;;8.50;4.50;;;20.20;43.70;;;;;;5012259;28;20687;-72
2022/03/30 00:41:16;;;;;;;9.63;4.53;;;20.20;43.70;;;;;;5012096;28;20194;-72
2022/03/30 00:43:42;;;;;;;8.68;4.50;;;20.20;43.70;;;;;;5012613;28;20188;-72
2022/03/30 00:46:12;;;;;;;9.80;4.63;;;20.20;43.60;;;;;;5012248;28;20195;-72
2022/03/30 00:48:40;;;;;;;11.77;5.00;;;20.20;43.60;;;;;;5012115;28;20262;-71
2022/03/30 00:51:06;;;;;;;8.60;5.20;;;20.20;43.60;;;;;;5028694;28;20686;-72
2022/03/30 00:53:32;;;;;;;7.40;4.45;;;20.20;43.60;;;;;;5012122;28;20188;-72
2022/03/30 00:55:58;;;;;;;9.30;4.57;;;20.20;43.70;;;;;;5012018;28;20215;-72
2022/03/30 00:58:26;;;;;;;7.55;4.40;;;20.20;43.70;;;;;;5028333;28;20212;-72
2022/03/30 01:00:53;;;;;;;10.32;4.30;;;20.20;43.70;;;;;;5013016;28;20180;-72
2022/03/30 01:03:19;;;;;;;8.48;4.40;;;20.20;43.70;;;;;;5012274;28;20184;-72
2022/03/30 01:05:45;;;;;;;6.28;3.95;;;20.20;43.70;;;;;;5011854;28;20187;-72
2022/03/30 01:08:11;;;;;;;6.40;4.28;;;20.20;43.80;;;;;;5012069;28;20212;-72
2022/03/30 01:10:37;;;;;;;9.98;4.50;;;20.20;43.80;;;;;;5028046;28;20200;-72
2022/03/30 01:13:05;;;;;;;8.13;4.65;;;20.10;43.70;;;;;;5022147;28;20621;-72
2022/03/30 01:15:32;;;;;;;8.77;3.97;;;20.20;43.80;;;;;;5048386;28;20175;-72
2022/03/30 01:17:57;;;;;;;9.32;4.45;;;20.10;43.70;;;;;;5031713;28;20203;-72
2022/03/30 01:20:23;;;;;;;7.53;4.07;;;20.10;43.70;;;;;;5047862;28;20179;-72
2022/03/30 01:22:50;;;;;;;8.48;4.53;;;20.20;43.70;;;;;;5031359;28;20187;-72
2022/03/30 01:25:16;;;;;;;10.20;4.63;;;20.20;43.70;;;;;;5048263;28;20210;-72
2022/03/30 01:27:42;;;;;;;8.00;4.30;;;20.10;43.60;;;;;;5081721;22;21023;-70
2022/03/30 01:33:04;;;;;;;9.27;4.57;;;20.20;43.70;;;;;;5032491;28;20172;-70
2022/03/30 01:35:30;;;;;;;10.60;4.40;;;20.10;43.60;;;;;;5031060;28;20195;-70
2022/03/30 01:37:57;;;;;;;9.13;4.90;;;20.10;43.60;;;;;;5028213;28;20207;-70
2022/03/30 01:40:23;;;;;;;8.15;4.63;;;20.10;43.60;;;;;;5027798;28;20223;-70
2022/03/30 01:42:49;;;;;;;8.95;4.10;;;20.10;43.70;;;;;;5027827;28;20188;-70
2022/03/30 01:45:16;;;;;;;9.52;4.90;;;20.10;43.60;;;;;;5028065;28;20210;-70
2022/03/30 01:47:50;;;;;;;6.55;4.10;;;20.20;43.70;;;;;;5028052;28;20208;-70
2022/03/30 01:50:17;;;;;;;7.78;4.15;;;20.10;43.70;;;;;;5027506;28;20223;-70
2022/03/30 01:52:44;;;;;;;7.70;4.57;;;20.10;43.70;;;;;;5027952;28;20180;-70
2022/03/30 01:55:09;;;;;;;8.38;4.63;;;20.10;43.70;;;;;;5027695;28;20208;-70
2022/03/30 01:57:35;;;;;;;6.90;3.92;;;20.10;43.60;;;;;;5027744;28;20721;-70
2022/03/30 02:00:04;;;;;;;9.30;4.50;;;20.10;43.70;;;;;;5027864;28;20191;-69
2022/03/30 02:02:39;;;;;;;10.43;4.85;;;20.10;43.70;;;;;;5026734;28;20651;-70
2022/03/30 02:05:08;;;;;;;8.70;4.35;;;20.10;43.60;;;;;;5012701;28;20187;-70
2022/03/30 02:07:39;;;;;;;9.80;4.70;;;20.10;43.60;;;;;;5014998;28;20194;-71
2022/03/30 02:10:08;;;;;;;11.52;5.28;;;20.10;43.60;;;;;;5016277;28;20196;-70
2022/03/30 02:12:34;;;;;;;8.27;4.72;;;20.10;43.60;;;;;;4998699;28;20180;-70
2022/03/30 02:15:00;;;;;;;9.63;4.68;;;20.10;43.60;;;;;;5016269;28;20176;-70
2022/03/30 02:17:27;;;;;;;8.32;4.70;;;20.10;43.60;;;;;;5015051;28;20194;-70
2022/03/30 02:19:56;;;;;;;10.18;4.95;;;20.10;43.60;;;;;;5031711;28;20180;-70
2022/03/30 02:22:22;;;;;;;6.80;5.18;;;20.10;43.50;;;;;;5014705;28;20207;-70
2022/03/30 02:24:50;;;;;;;9.45;4.40;;;20.10;43.60;;;;;;5015054;28;20251;-71
2022/03/30 02:27:16;;;;;;;5.95;4.00;;;20.10;43.60;;;;;;5031568;28;20256;-71
2022/03/30 02:29:42;;;;;;;7.40;4.40;;;20.10;43.70;;;;;;5031055;28;20219;-71
2022/03/30 02:32:08;;;;;;;7.55;4.57;;;20.10;43.70;;;;;;5014134;28;20184;-69
2022/03/30 02:34:34;;;;;;;8.07;4.40;;;20.10;43.60;;;;;;5031096;28;20177;-69
2022/03/30 02:37:00;;;;;;;7.38;4.30;;;20.10;43.60;;;;;;5014811;28;20188;-70
2022/03/30 02:39:25;;;;;;;5.18;4.07;;;20.10;43.80;;;;;;5015673;28;20211;-70
2022/03/30 02:41:51;;;;;;;7.43;4.68;;;20.10;43.70;;;;;;5015612;28;20660;-69
2022/03/30 02:44:17;;;;;;;6.60;4.22;;;20.10;43.70;;;;;;5030969;28;20286;-69
2022/03/30 02:46:43;;;;;;;7.70;4.80;;;20.10;43.70;;;;;;5015660;28;20183;-70
2022/03/30 02:49:09;;;;;;;7.95;4.50;;;20.10;43.70;;;;;;4997730;28;20639;-70
2022/03/30 02:51:35;;;;;;;6.70;3.80;;;20.10;43.80;;;;;;5030508;28;20203;-70
2022/03/30 02:54:01;;;;;;;8.27;3.83;;;20.10;43.80;;;;;;5014763;28;20173;-70
2022/03/30 02:56:26;;;;;;;9.95;4.72;;;20.10;43.70;;;;;;5013616;28;20196;-70
2022/03/30 02:58:52;;;;;;;9.88;4.75;;;20.10;43.70;;;;;;5030089;28;20235;-70
2022/03/30 03:01:18;;;;;;;10.25;4.47;;;20.10;43.70;;;;;;5030415;28;20242;-70
2022/03/30 03:03:44;;;;;;;13.85;4.80;;;20.10;43.70;;;;;;5015329;28;20187;-70
2022/03/30 03:06:09;;;;;;;9.98;5.10;;;20.10;43.60;;;;;;5014289;28;20219;-70
2022/03/30 03:08:35;;;;;;;9.38;5.18;;;20.00;43.60;;;;;;5015261;28;20208;-70
2022/03/30 03:11:01;;;;;;;9.57;4.70;;;20.10;43.60;;;;;;5013697;28;20212;-70
2022/03/30 03:13:27;;;;;;;9.75;4.90;;;20.10;43.60;;;;;;5030446;28;20194;-70
2022/03/30 03:15:52;;;;;;;11.63;5.35;;;20.00;43.50;;;;;;5015272;28;20207;-71
2022/03/30 03:18:19;;;;;;;9.98;4.88;;;20.10;43.60;;;;;;5030196;28;20200;-70
2022/03/30 03:20:47;;;;;;;8.85;4.78;;;20.10;43.70;;;;;;5014937;28;20583;-70
2022/03/30 03:23:15;;;;;;;10.10;5.10;;;20.00;43.60;;;;;;5030285;28;20239;-70
2022/03/30 03:25:41;;;;;;;7.68;4.50;;;20.00;43.70;;;;;;5030420;28;20238;-70
2022/03/30 03:28:12;;;;;;;7.82;4.03;;;20.00;43.60;;;;;;5029912;28;20220;-69
2022/03/30 03:30:39;;;;;;;5.97;4.28;;;20.10;43.80;;;;;;5030132;28;20207;-69
2022/03/30 03:33:07;;;;;;;7.82;4.88;;;20.00;43.70;;;;;;5030099;28;20176;-69
2022/03/30 03:35:34;;;;;;;5.78;4.38;;;20.10;43.80;;;;;;5013794;28;20184;-70
2022/03/30 03:38:01;;;;;;;8.48;4.65;;;20.00;43.70;;;;;;5030184;28;20208;-70
2022/03/30 03:40:30;;;;;;;8.88;4.38;;;20.00;43.70;;;;;;5030089;28;20219;-70
2022/03/30 03:42:58;;;;;;;7.78;4.50;;;20.00;43.80;;;;;;5014478;28;20323;-69
2022/03/30 03:45:24;;;;;;;10.80;4.88;;;20.10;43.80;;;;;;5029875;28;20243;-70
2022/03/30 03:47:51;;;;;;;7.50;4.57;;;20.00;43.70;;;;;;5029763;28;20204;-70
2022/03/30 03:50:17;;;;;;;7.55;4.53;;;20.10;43.80;;;;;;5014146;28;20699;-70
2022/03/30 03:52:43;;;;;;;9.75;5.07;;;20.00;43.70;;;;;;5029747;28;20195;-70
2022/03/30 03:55:10;;;;;;;10.95;5.18;;;20.00;43.70;;;;;;5029646;28;20274;-70
2022/03/30 03:57:39;;;;;;;9.77;4.72;;;20.00;43.70;;;;;;5029831;28;20208;-70
2022/03/30 04:00:07;;;;;;;11.10;4.90;;;20.00;43.70;;;;;;5029597;28;20181;-71
2022/03/30 04:02:39;;;;;;;12.38;4.63;;;20.00;43.70;;;;;;5028852;28;20196;-69
2022/03/30 04:05:05;;;;;;;8.98;4.53;;;20.00;43.70;;;;;;5014078;28;20172;-70
2022/03/30 04:07:32;;;;;;;6.88;4.47;;;20.00;43.70;;;;;;5014008;28;20176;-69
2022/03/30 04:09:59;;;;;;;9.02;4.57;;;20.00;43.80;;;;;;5014070;28;20188;-70
2022/03/30 04:12:25;;;;;;;6.50;4.30;;;20.00;43.80;;;;;;5014091;28;20207;-70
2022/03/30 04:14:50;;;;;;;7.20;4.05;;;20.00;43.80;;;;;;5029362;28;20555;-70
2022/03/30 04:17:16;;;;;;;8.57;4.85;;;20.00;43.80;;;;;;5029495;28;20250;-71
2022/03/30 04:19:42;;;;;;;6.95;4.25;;;20.00;43.80;;;;;;5029542;28;20184;-71
2022/03/30 04:22:08;;;;;;;6.90;4.57;;;20.00;43.80;;;;;;5012566;28;20200;-70
2022/03/30 04:24:33;;;;;;;7.60;4.03;;;20.00;43.80;;;;;;5012577;28;20184;-70
2022/03/30 04:26:59;;;;;;;7.75;4.63;;;20.00;43.80;;;;;;5029078;28;20214;-70
2022/03/30 04:29:25;;;;;;;7.95;4.20;;;20.00;43.90;;;;;;4995712;28;20215;-71
2022/03/30 04:31:52;;;;;;;9.35;4.65;;;20.00;43.90;;;;;;5028752;28;20219;-71
2022/03/30 04:34:18;;;;;;;6.35;4.65;;;20.00;43.80;;;;;;5029011;28;20199;-70
2022/03/30 04:36:43;;;;;;;8.38;4.85;;;20.00;43.90;;;;;;4991682;28;20180;-70
2022/03/30 04:39:09;;;;;;;9.55;4.70;;;20.00;43.90;;;;;;5013557;28;20200;-69
2022/03/30 04:41:35;;;;;;;8.70;4.60;;;20.00;43.90;;;;;;5028050;28;20258;-70
2022/03/30 04:44:01;;;;;;;7.90;4.10;;;20.00;43.90;;;;;;5028738;28;20210;-70
2022/03/30 04:46:26;;;;;;;8.90;4.35;;;20.00;43.90;;;;;;5028988;28;20188;-70
2022/03/30 04:48:52;;;;;;;8.43;4.13;;;20.00;43.90;;;;;;5028593;28;20204;-70
2022/03/30 04:51:18;;;;;;;11.48;5.30;;;20.00;43.90;;;;;;5028732;28;20227;-70
2022/03/30 04:53:44;;;;;;;9.50;4.72;;;20.00;43.90;;;;;;5013355;28;20180;-70
2022/03/30 04:56:10;;;;;;;11.75;4.90;;;20.00;43.90;;;;;;5012211;28;20176;-70
2022/03/30 04:58:35;;;;;;;13.68;5.43;;;20.00;43.90;;;;;;5028680;28;20200;-70
2022/03/30 05:01:01;;;;;;;11.32;4.93;;;20.00;44.00;;;;;;5013346;28;20188;-70
2022/03/30 05:03:27;;;;;;;8.43;4.72;;;20.00;43.90;;;;;;5013379;28;20183;-70
2022/03/30 05:05:53;;;;;;;8.75;4.40;;;20.00;44.00;;;;;;5028449;28;20685;-69
2022/03/30 05:08:18;;;;;;;8.70;4.53;;;20.00;44.00;;;;;;4999080;28;20228;-70
2022/03/30 05:10:46;;;;;;;5.97;4.65;;;20.00;44.00;;;;;;4992102;28;20280;-70
2022/03/30 05:13:13;;;;;;;7.63;3.63;;;20.00;44.00;;;;;;5009617;28;20220;-69
2022/03/30 05:15:39;;;;;;;7.30;4.43;;;20.00;44.10;;;;;;5022505;28;20192;-70
2022/03/30 05:18:06;;;;;;;6.82;4.78;;;20.00;44.00;;;;;;5000396;28;20215;-70
2022/03/30 05:20:33;;;;;;;8.27;4.50;;;20.00;44.10;;;;;;4995925;28;20215;-70
2022/03/30 05:22:59;;;;;;;9.02;4.50;;;20.00;44.10;;;;;;4998971;28;20196;-70
2022/03/30 05:25:25;;;;;;;9.65;4.57;;;20.00;44.10;;;;;;5020589;28;20184;-70
2022/03/30 05:27:51;;;;;;;7.90;4.45;;;20.00;44.10;;;;;;5012696;28;20254;-70
2022/03/30 05:30:17;;;;;;;10.02;4.68;;;20.00;44.10;;;;;;5027821;28;20211;-69
2022/03/30 05:32:45;;;;;;;8.30;4.47;;;20.00;44.10;;;;;;5028215;28;20207;-70
2022/03/30 05:35:12;;;;;;;7.50;4.65;;;20.00;44.20;;;;;;5027868;28;20176;-69
2022/03/30 05:37:38;;;;;;;13.57;5.18;;;20.00;44.20;;;;;;5012908;28;20204;-70
2022/03/30 05:40:06;;;;;;;10.13;4.93;;;20.00;44.20;;;;;;5012434;28;20667;-69
2022/03/30 05:42:33;;;;;;;9.02;4.78;;;20.00;44.20;;;;;;5027512;28;20271;-70
2022/03/30 05:44:58;;;;;;;11.50;4.97;;;20.00;44.20;;;;;;5027347;28;20191;-70
2022/03/30 05:47:24;;;;;;;11.57;5.43;;;20.00;44.30;;;;;;5027901;28;20184;-69
2022/03/30 05:49:50;;;;;;;8.80;5.05;;;19.90;44.20;;;;;;5010515;28;20193;-70
2022/03/30 05:52:16;;;;;;;8.90;4.95;;;20.00;44.30;;;;;;5008393;28;20193;-70
2022/03/30 05:54:42;;;;;;;13.27;6.15;;;19.90;44.20;;;;;;5008132;28;20696;-70
2022/03/30 05:57:08;;;;;;;10.80;6.43;;;19.90;44.30;;;;;;5008273;28;20235;-70
2022/03/30 05:59:37;;;;;;;8.07;4.28;;;19.90;44.30;;;;;;5008092;28;20630;-70
2022/03/30 06:02:08;;;;;;;8.70;4.97;;;19.90;44.30;;;;;;4992691;28;20177;-70
2022/03/30 06:04:34;;;;;;;6.35;4.55;;;19.90;44.90;;;;;;4992922;28;20188;-70
2022/03/30 06:07:01;;;;;;;6.78;4.63;;;20.00;44.40;;;;;;5022384;28;20192;-70
2022/03/30 06:09:27;;;;;;;9.40;4.68;;;19.90;44.40;;;;;;5012316;28;20670;-70
2022/03/30 06:11:54;;;;;;;7.03;4.95;;;19.90;44.40;;;;;;5027657;28;20212;-69
2022/03/30 06:14:20;;;;;;;9.15;5.15;;;19.90;44.40;;;;;;5012281;28;20188;-70
2022/03/30 06:16:48;;;;;;;9.40;5.80;;;20.00;44.50;;;;;;5012031;28;20195;-70
2022/03/30 06:19:15;;;;;;;7.93;5.13;;;19.90;44.40;;;;;;5027404;28;20215;-70
2022/03/30 06:21:42;;;;;;;7.60;4.75;;;19.90;44.40;;;;;;5012126;28;20172;-69
2022/03/30 06:24:12;;;;;;;8.25;5.25;;;19.90;44.40;;;;;;5015988;28;20187;-70
2022/03/30 06:26:43;;;;;;;9.35;5.60;;;19.90;44.50;;;;;;5030798;28;20176;-70
2022/03/30 06:29:09;;;;;;;7.57;5.55;;;20.00;44.60;;;;;;5010925;28;20223;-70
2022/03/30 06:31:36;;;;;;;7.72;5.13;;;19.90;44.50;;;;;;5011359;28;20572;-70
2022/03/30 06:34:03;;;;;;;8.23;5.93;;;20.00;44.60;;;;;;5027425;28;20230;-71
2022/03/30 06:36:29;;;;;;;9.20;5.55;;;19.90;44.50;;;;;;5026982;28;20196;-69
2022/03/30 06:38:56;;;;;;;7.80;5.47;;;20.00;44.60;;;;;;5010817;28;20196;-70
2022/03/30 06:41:24;;;;;;;7.75;5.50;;;19.90;44.60;;;;;;5027615;28;20259;-69
2022/03/30 06:43:50;;;;;;;9.85;5.18;;;19.90;44.50;;;;;;5027236;28;20188;-69
2022/03/30 06:46:18;;;;;;;11.30;5.32;;;19.90;44.60;;;;;;5010807;28;20192;-70
2022/03/30 06:48:46;;;;;;;7.30;4.90;;;19.90;44.60;;;;;;5027546;28;20304;-69
2022/03/30 06:51:15;;;;;;;9.40;5.57;;;19.90;44.60;;;;;;5010655;28;20216;-70
2022/03/30 06:53:42;;;;;;;8.80;4.93;;;19.90;44.60;;;;;;5015630;28;20711;-70
2022/03/30 06:56:09;;;;;;;5.15;4.45;;;19.90;44.60;;;;;;5030985;28;20192;-69
2022/03/30 06:58:35;;;;;;;7.38;3.72;;;19.80;45.00;;;;;;5014646;28;20355;-70
2022/03/30 07:01:01;;;;;;;7.97;4.32;;;19.90;46.50;;;;;;5030471;28;20211;-70
2022/03/30 07:03:28;;;;;;;8.50;3.72;;;20.00;47.00;;;;;;5014651;28;20241;-69
2022/03/30 07:05:57;;;;;;;8.65;3.67;;;20.00;47.20;;;;;;5014281;28;20188;-70
2022/03/30 07:11:08;;;;;;;7.70;4.15;;;20.10;47.20;;;;;;5030600;28;20220;-70
2022/03/30 07:13:34;;;;;;;7.95;4.28;;;20.10;47.30;;;;;;5014270;28;20180;-69
2022/03/30 07:16:00;;;;;;;6.95;3.90;;;20.10;47.40;;;;;;5013834;28;20237;-70
2022/03/30 07:18:27;;;;;;;7.65;4.13;;;20.10;47.40;;;;;;5015281;28;20219;-70
2022/03/30 07:20:53;;;;;;;9.65;4.85;;;20.10;47.50;;;;;;5030652;28;20186;-69
2022/03/30 07:23:20;;;;;;;8.00;4.22;;;20.10;47.50;;;;;;5013865;28;20188;-70
2022/03/30 07:25:46;;;;;;;7.13;4.07;;;20.10;47.50;;;;;;5013721;28;20191;-70
2022/03/30 07:28:15;;;;;;;7.60;4.00;;;20.10;47.60;;;;;;5042225;22;20227;-68
2022/03/30 07:30:43;;;;;;;7.95;3.95;;;20.10;47.60;;;;;;5032803;28;20223;-68
2022/03/30 07:33:09;;;;;;;7.50;3.63;;;20.10;47.60;;;;;;5033421;28;20183;-69
2022/03/30 07:35:35;;;;;;;5.63;3.55;;;20.10;47.70;;;;;;5033451;28;20681;-68
2022/03/30 07:38:02;;;;;;;5.78;3.33;;;20.10;47.80;;;;;;5016949;28;20640;-68
2022/03/30 07:40:29;;;;;;;7.32;3.60;;;20.10;47.80;;;;;;5032920;28;20213;-69
2022/03/30 07:42:56;;;;;;;6.03;3.55;;;20.10;47.80;;;;;;5033294;28;20234;-69
2022/03/30 07:45:24;;;;;;;6.72;3.70;;;20.10;47.90;;;;;;5033255;28;20184;-68
2022/03/30 07:47:51;;;;;;;4.93;3.67;;;20.10;47.90;;;;;;5032895;28;20237;-69
2022/03/30 07:50:18;;;;;;;7.43;4.15;;;20.10;47.90;;;;;;5033057;28;20254;-69
2022/03/30 07:52:45;;;;;;;6.18;3.85;;;20.10;48.00;;;;;;5032947;28;20367;-69
2022/03/30 07:55:12;;;;;;;5.78;3.15;;;20.10;47.90;;;;;;5033341;28;20187;-69
2022/03/30 07:57:42;;;;;;;6.60;3.85;;;20.10;47.90;;;;;;5032791;28;20183;-69
2022/03/30 08:00:11;;;;;;;6.13;4.03;;;20.10;48.00;;;;;;5033018;28;20218;-69
2022/03/30 08:02:38;;;;;;;7.55;4.35;;;20.10;48.00;;;;;;5016629;28;20188;-69
2022/03/30 08:05:04;;;;;;;9.35;4.25;;;20.10;48.00;;;;;;5033176;28;20183;-69
2022/03/30 08:07:30;;;;;;;8.55;4.18;;;20.10;48.00;;;;;;5032880;28;20187;-69
2022/03/30 08:09:57;;;;;;;11.27;4.75;;;20.10;48.00;;;;;;5032686;28;20211;-69
2022/03/30 08:12:25;;;;;;;7.05;3.88;;;20.10;48.10;;;;;;5016413;28;20183;-69
2022/03/30 08:14:52;;;;;;;8.20;4.32;;;20.10;48.10;;;;;;5032860;28;20187;-67
2022/03/30 08:17:18;;;;;;;7.57;4.25;;;20.10;48.20;;;;;;5032422;28;20230;-69
2022/03/30 08:19:44;;;;;;;11.20;4.03;;;20.10;48.20;;;;;;5028916;28;20619;-69
2022/03/30 08:22:28;;;;;;;8.93;4.13;;;20.10;48.20;;;;;;5013804;28;20663;-68
2022/03/30 08:25:07;;;;;;;6.63;3.30;;;20.10;48.20;;;;;;5013926;28;20207;-69
2022/03/30 08:27:35;;;;;;;7.13;3.72;;;20.10;48.20;;;;;;5029879;28;20179;-69
2022/03/30 08:30:02;;;;;;;4.30;3.45;;;20.10;48.20;;;;;;5032470;28;20215;-69
2022/03/30 08:32:28;;;;;;;7.40;3.47;;;20.10;48.20;;;;;;5032497;28;20233;-69
2022/03/30 08:34:55;;;;;;;5.57;3.58;;;20.10;48.20;;;;;;5033874;28;20568;-68
2022/03/30 08:37:23;;;;;;;8.77;3.95;;;20.10;48.20;;;;;;5032444;28;20187;-69
2022/03/30 08:39:49;;;;;;;8.80;3.80;;;20.10;48.20;;;;;;5032257;28;20199;-67
2022/03/30 08:42:17;;;;;;;5.25;3.88;;;20.10;48.20;;;;;;5032079;28;20225;-68
2022/03/30 08:44:46;;;;;;;8.45;4.18;;;20.10;48.20;;;;;;5032047;28;20183;-69
2022/03/30 08:47:13;;;;;;;9.73;4.32;;;20.10;48.20;;;;;;5031911;28;20194;-69
2022/03/30 08:49:39;;;;;;;10.05;4.22;;;20.10;48.20;;;;;;5032196;28;20195;-69
2022/03/30 08:52:08;;;;;;;9.57;4.68;;;20.20;48.30;;;;;;5031639;28;20210;-69
2022/03/30 08:54:34;;;;;;;8.50;4.13;;;20.20;48.30;;;;;;5031907;28;20203;-69
2022/03/30 08:57:03;;;;;;;6.45;3.97;;;20.10;48.20;;;;;;5033151;28;20206;-69
2022/03/30 08:59:29;;;;;;;6.60;3.60;;;20.10;48.20;;;;;;5031917;28;20211;-69
2022/03/30 09:01:57;;;;;;;5.85;3.72;;;20.10;48.20;;;;;;5031941;28;20187;-69
2022/03/30 09:04:25;;;;;;;6.68;3.30;;;20.10;48.20;;;;;;5031755;28;20194;-69
2022/03/30 09:06:59;;;;;;;6.50;3.67;;;20.10;48.20;;;;;;5032633;28;20192;-69
2022/03/30 09:09:35;;;;;;;7.25;3.72;;;20.10;48.10;;;;;;5031520;28;20200;-69
2022/03/30 09:12:09;;;;;;;5.13;3.10;;;20.10;48.20;;;;;;5031427;28;20233;-69
2022/03/30 09:14:39;;;;;;;3.92;2.92;;;20.10;48.20;;;;;;5031185;28;20262;-69
2022/03/30 09:17:08;;;;;;;6.03;3.50;;;20.10;48.10;;;;;;5031567;28;20183;-69
2022/03/30 09:19:42;;;;;;;7.72;4.00;;;20.10;48.00;;;;;;5031432;28;20210;-69
2022/03/30 09:22:10;;;;;;;8.00;3.80;;;20.10;48.00;;;;;;5032615;28;20250;-69
2022/03/30 09:24:39;;;;;;;6.35;3.60;;;20.10;48.00;;;;;;5031627;28;20183;-69
2022/03/30 09:27:07;;;;;;;6.82;4.13;;;20.10;48.00;;;;;;5032401;28;20179;-69
2022/03/30 09:29:37;;;;;;;7.72;3.75;;;20.10;48.00;;;;;;5031210;28;20210;-69
2022/03/30 09:32:07;;;;;;;8.85;4.10;;;20.10;48.00;;;;;;5031244;28;20216;-69
2022/03/30 09:34:49;;;;;;;4.57;3.55;;;20.10;47.90;;;;;;5031397;28;20172;-69
2022/03/30 09:37:15;;;;;;;5.75;3.13;;;20.10;48.00;;;;;;5031047;28;20277;-69
2022/03/30 09:39:43;;;;;;;4.60;3.58;;;20.10;48.00;;;;;;5031119;28;20209;-69
2022/03/30 09:42:11;;;;;;;4.63;3.22;;;20.10;48.00;;;;;;5031033;28;20183;-68
2022/03/30 09:44:54;;;;;;;4.50;3.35;;;20.10;48.00;;;;;;5031089;28;20187;-69
2022/03/30 09:47:23;;;;;;;6.13;3.40;;;20.10;48.00;;;;;;5030977;28;20253;-69
2022/03/30 09:49:54;;;;;;;5.55;3.42;;;20.10;48.60;;;;;;5031383;28;20713;-69
2022/03/30 09:52:31;;;;;;;5.82;3.90;;;20.10;48.00;;;;;;5031197;28;20211;-69
2022/03/30 09:55:04;;;;;;;6.15;3.95;;;20.10;48.00;;;;;;5032757;28;20163;-69
2022/03/30 09:57:35;;;;;;;7.63;3.58;;;20.10;47.90;;;;;;5014759;28;20183;-69
2022/03/30 10:00:12;;;;;;;5.30;3.80;;;20.10;47.90;;;;;;5030929;28;20233;-69
2022/03/30 10:02:52;;;;;;;5.30;3.40;;;20.10;47.90;;;;;;5014505;28;20222;-69
2022/03/30 10:05:21;;;;;;;6.10;3.63;;;20.10;47.90;;;;;;5031354;28;20191;-69
2022/03/30 10:07:48;;;;;;;4.20;3.10;;;20.10;47.90;;;;;;5031920;28;20191;-67
2022/03/30 10:10:17;;;;;;;4.97;3.40;;;20.10;47.90;;;;;;5031192;28;20269;-69
2022/03/30 10:12:44;;;;;;;5.75;3.50;;;20.10;47.90;;;;;;5031077;28;20282;-69
2022/03/30 10:15:12;;;;;;;5.03;3.28;;;20.10;47.90;;;;;;5030963;28;20222;-68
2022/03/30 10:17:38;;;;;;;5.32;3.33;;;20.10;47.90;;;;;;5030738;28;20192;-69
2022/03/30 10:20:08;;;;;;;4.65;3.33;;;20.10;47.90;;;;;;5031135;28;20628;-69
2022/03/30 10:23:08;;;;;;;6.25;3.72;;;20.10;47.90;;;;;;5031023;28;20273;-68
2022/03/30 10:26:11;;;;;;;5.35;3.45;;;20.10;47.90;;;;;;5030865;28;20272;-70
2022/03/30 10:28:40;;;;;;;3.90;2.92;;;20.10;47.90;;;;;;5014445;28;20215;-69
2022/03/30 10:31:07;;;;;;;5.43;3.33;;;20.10;47.90;;;;;;5014825;28;20262;-69
2022/03/30 10:33:44;;;;;;;5.15;3.10;;;20.10;47.90;;;;;;4998611;28;20176;-69
2022/03/30 10:36:32;;;;;;;6.22;3.85;;;20.10;47.90;;;;;;5035932;28;20189;-69
2022/03/30 10:39:16;;;;;;;5.00;3.20;;;20.10;47.90;;;;;;5037039;28;20560;-70
2022/03/30 10:42:05;;;;;;;8.00;4.15;;;20.10;47.90;;;;;;5045522;28;20565;-70
2022/03/30 10:44:43;;;;;;;8.98;3.83;;;20.10;48.00;;;;;;5046966;28;20635;-70
2022/03/30 10:47:22;;;;;;;7.93;3.20;;;20.10;48.20;;;;;;5035003;28;20183;-69
2022/03/30 10:49:51;;;;;;;6.68;3.50;;;20.10;48.20;;;;;;5043515;28;20249;-69
2022/03/30 10:52:44;;;;;;;5.90;3.17;;;20.10;48.20;;;;;;5045498;28;20206;-70
2022/03/30 10:55:12;;;;;;;9.00;3.30;;;20.10;48.20;;;;;;5046321;28;20262;-69
2022/03/30 10:58:03;;;;;;;6.35;3.33;;;20.10;48.20;;;;;;5045540;28;20799;-69
2022/03/30 11:00:40;;;;;;;10.30;3.33;;;20.10;48.30;;;;;;5045125;28;20184;-69
2022/03/30 11:03:21;;;;;;;7.65;3.70;;;20.10;48.40;;;;;;5015342;28;20245;-69
2022/03/30 11:06:05;;;;;;;12.35;3.85;;;20.10;48.40;;;;;;5059592;28;20197;-69
2022/03/30 11:08:34;;;;;;;12.38;3.75;;;20.10;48.60;;;;;;5053941;28;20237;-69
2022/03/30 11:11:19;;;;;;;10.05;3.63;;;20.10;48.70;;;;;;5052309;28;20261;-70
2022/03/30 11:13:45;;;;;;;8.48;3.58;;;20.20;48.90;;;;;;5035026;28;20174;-70
2022/03/30 11:16:11;;;;;;;9.80;3.78;;;20.20;49.00;;;;;;5034408;28;20180;-71
2022/03/30 11:18:55;;;;;;;8.88;3.17;;;20.20;49.10;;;;;;5033392;28;20291;-68
2022/03/30 11:21:22;;;;;;;7.93;3.40;;;20.10;49.30;;;;;;5033632;28;20190;-68
2022/03/30 11:23:58;;;;;;;12.43;5.55;;;20.20;49.60;;;;;;5017045;28;20201;-69
2022/03/30 11:27:05;;;;;;;14.43;7.50;;;20.20;49.60;;;;;;5033789;28;20190;-69
2022/03/30 11:29:45;;;;;;;12.43;7.25;;;20.20;49.80;;;;;;5049686;28;20215;-69
2022/03/30 11:32:22;;;;;;;14.10;7.75;;;20.20;50.10;;;;;;5033646;28;20222;-69
2022/03/30 11:35:19;;;;;;;10.82;7.70;;;20.20;50.20;;;;;;5033652;28;20190;-69
2022/03/30 11:37:49;;;;;;;11.77;7.38;;;20.20;50.30;;;;;;5033436;28;20183;-70
2022/03/30 11:40:22;;;;;;;9.55;7.22;;;20.20;50.30;;;;;;5033778;28;20271;-69
2022/03/30 11:42:57;;;;;;;10.10;7.43;;;20.20;50.20;;;;;;5032668;28;20193;-68
2022/03/30 11:45:29;;;;;;;11.00;7.95;;;20.20;49.80;;;;;;5033268;28;20199;-69
2022/03/30 11:48:06;;;;;;;9.77;7.95;;;20.20;49.80;;;;;;5033217;28;20175;-70
2022/03/30 11:50:45;;;;;;;10.63;7.88;;;20.10;49.80;;;;;;5049859;28;20195;-69
2022/03/30 11:53:24;;;;;;;11.43;7.07;;;20.10;49.60;;;;;;5032871;28;20167;-69
2022/03/30 11:56:05;;;;;;;9.15;5.80;;;20.10;49.50;;;;;;5032907;28;20191;-69
2022/03/30 11:58:35;;;;;;;7.22;6.57;;;20.10;49.50;;;;;;5033067;28;20207;-70
2022/03/30 12:01:06;;;;;;;7.63;6.47;;;20.10;49.40;;;;;;5033460;28;20187;-69
2022/03/30 12:03:33;;;;;;;8.27;6.13;;;20.10;49.50;;;;;;5033239;28;20724;-69
2022/03/30 12:06:02;;;;;;;8.40;6.53;;;20.10;49.30;;;;;;5033124;28;20194;-69
2022/03/30 12:08:39;;;;;;;6.78;5.88;;;20.10;49.20;;;;;;5032919;28;20210;-69
2022/03/30 12:11:06;;;;;;;9.23;5.90;;;20.10;49.10;;;;;;5032690;28;20206;-69
2022/03/30 12:13:32;;;;;;;8.50;6.00;;;20.10;49.00;;;;;;5016403;28;20179;-68
2022/03/30 12:16:14;;;;;;;5.95;5.45;;;20.10;49.00;;;;;;5033890;28;20264;-69
2022/03/30 12:18:48;;;;;;;8.55;6.30;;;20.10;48.90;;;;;;5032704;28;20746;-68
2022/03/30 12:21:20;;;;;;;7.25;5.75;;;20.10;48.90;;;;;;5032468;28;20187;-69
2022/03/30 12:23:57;;;;;;;7.13;5.97;;;20.10;48.80;;;;;;5032599;28;20184;-69
2022/03/30 12:26:24;;;;;;;9.27;5.93;;;20.10;48.70;;;;;;5033707;28;20194;-69
2022/03/30 12:28:51;;;;;;;6.53;5.53;;;20.10;48.70;;;;;;5033678;28;20234;-69
2022/03/30 12:31:17;;;;;;;9.65;5.85;;;20.10;48.70;;;;;;5032281;28;20302;-69
2022/03/30 12:33:46;;;;;;;6.22;5.15;;;20.10;48.70;;;;;;5033942;28;20262;-68
2022/03/30 12:36:21;;;;;;;7.40;5.03;;;20.10;48.70;;;;;;5032311;28;20237;-69
2022/03/30 12:38:50;;;;;;;6.20;5.22;;;20.10;48.60;;;;;;5032297;28;20230;-69
2022/03/30 12:41:26;;;;;;;7.18;4.85;;;20.10;48.60;;;;;;5033339;28;20583;-70
2022/03/30 12:44:01;;;;;;;6.90;5.13;;;20.10;48.60;;;;;;5033457;28;20198;-69
2022/03/30 12:46:33;;;;;;;8.13;5.15;;;20.10;48.60;;;;;;5032067;28;20190;-69
2022/03/30 12:49:05;;;;;;;8.13;5.22;;;20.10;48.60;;;;;;5048971;28;20250;-69
2022/03/30 12:51:33;;;;;;;6.53;4.97;;;20.10;48.50;;;;;;5031464;28;20222;-69
2022/03/30 12:54:04;;;;;;;9.82;5.38;;;20.10;48.50;;;;;;5032345;28;20213;-69
2022/03/30 12:56:31;;;;;;;6.88;4.72;;;20.10;48.40;;;;;;5032063;28;20226;-69
2022/03/30 12:59:01;;;;;;;6.93;4.57;;;20.10;48.40;;;;;;5015734;28;20207;-69
2022/03/30 13:01:39;;;;;;;6.55;4.65;;;20.10;48.40;;;;;;5033260;28;20233;-69